Kenyon, Minnesota
Current Conditions -  °F | °C
As of 12:34 PM on Wednesday 26 Nov 2014 (Local Time) from KSYN Reporting Station
Light Snow Light Snow  
Wind Chill: 16°   Ceiling: 700
Heat Index: 26°   Visibility: 1mi
Dew Point: 22°   Wind: 9mph
Humidity: 87%   Direction: 360°N
Pressure: 30.15"   Gusts: NA
Location:  44.27°N, 92.99°W
Report Text: KSYN 261834Z AUTO 36008KT 1SM -SN OVC007 M04/M05 A3015 RMK AO2 T10361055
Loading
Personal Weather Stations






























Interactive Weather Map New forecast layout! Learn more

10-Day Weather Forecast

Advertisements
Track Severe Weather on mobile